createdAt,value
2022-09-24T00:01:17.550Z,89.83
2022-09-24T00:03:50.540Z,89.58
2022-09-24T00:06:20.639Z,90.17
2022-09-24T00:08:49.928Z,90.19
2022-09-24T00:11:19.859Z,89.33
2022-09-24T00:13:47.465Z,89.28
2022-09-24T00:16:16.350Z,89.27
2022-09-24T00:18:43.105Z,89.50
2022-09-24T00:21:24.940Z,89.60
2022-09-24T00:23:53.784Z,89.56
2022-09-24T00:26:40.129Z,89.45
2022-09-24T00:29:08.937Z,90.36
2022-09-24T00:31:36.271Z,90.03
2022-09-24T00:34:03.562Z,89.80
2022-09-24T00:36:30.499Z,90.48
2022-09-24T00:38:58.923Z,90.45
2022-09-24T00:41:28.636Z,90.25
2022-09-24T00:43:55.895Z,90.41
2022-09-24T00:46:28.228Z,89.98
2022-09-24T00:49:00.298Z,89.98
2022-09-24T00:51:30.415Z,89.65
2022-09-24T00:54:01.415Z,90.42
2022-09-24T00:56:32.594Z,91.37
2022-09-24T00:59:02.413Z,91.08
2022-09-24T01:01:32.502Z,91.14
2022-09-24T01:04:00.522Z,91.76
2022-09-24T01:06:28.274Z,91.73
2022-09-24T01:08:56.844Z,91.67
2022-09-24T01:11:35.773Z,91.26
2022-09-24T01:14:20.551Z,91.84
2022-09-24T01:16:57.010Z,91.88
2022-09-24T01:19:35.468Z,91.96
2022-09-24T01:22:11.590Z,92.34
2022-09-24T01:24:55.617Z,91.11
2022-09-24T01:27:26.056Z,90.76
2022-09-24T01:30:05.088Z,91.18
2022-09-24T01:32:43.722Z,91.92
2022-09-24T01:35:22.017Z,92.34
2022-09-24T01:38:01.713Z,91.62
2022-09-24T01:40:30.368Z,91.90
2022-09-24T01:42:59.079Z,92.55
2022-09-24T01:45:31.876Z,92.90
2022-09-24T01:48:01.928Z,93.68
2022-09-24T01:50:32.735Z,94.35
2022-09-24T01:53:11.405Z,94.58
2022-09-24T01:55:47.526Z,94.10
2022-09-24T01:58:23.663Z,94.76
2022-09-24T02:00:57.661Z,95.11
2022-09-24T02:03:29.919Z,95.30
2022-09-24T02:06:22.658Z,94.37
2022-09-24T02:08:49.335Z,94.47
2022-09-24T02:11:20.330Z,93.87
2022-09-24T02:13:53.018Z,93.39
2022-09-24T02:16:23.664Z,93.49
2022-09-24T02:18:55.083Z,93.22
2022-09-24T02:21:23.714Z,93.45
2022-09-24T02:24:24.571Z,92.53
2022-09-24T02:26:51.428Z,93.50
2022-09-24T02:29:20.819Z,93.32
2022-09-24T02:31:52.654Z,93.62
2022-09-24T02:34:25.533Z,93.72
2022-09-24T02:36:59.472Z,92.78
2022-09-24T02:39:26.890Z,93.24
2022-09-24T02:41:54.792Z,93.56
2022-09-24T02:44:22.314Z,94.34
2022-09-24T02:46:50.385Z,95.15
2022-09-24T02:49:17.642Z,95.28
2022-09-24T02:51:44.851Z,93.82
2022-09-24T02:54:11.680Z,93.94
2022-09-24T02:56:38.963Z,94.80
2022-09-24T02:59:06.684Z,94.40
2022-09-24T03:01:34.444Z,94.12
2022-09-24T03:04:02.038Z,94.70
2022-09-24T03:06:30.366Z,94.76
2022-09-24T03:08:57.644Z,95.10
2022-09-24T03:11:24.722Z,95.27
2022-09-24T03:13:51.812Z,96.12
2022-09-24T03:16:20.150Z,96.65
2022-09-24T03:18:47.912Z,96.96
2022-09-24T03:21:17.177Z,98.26
2022-09-24T03:23:43.979Z,99.86
2022-09-24T03:26:11.065Z,100.00
2022-09-24T03:28:37.701Z,100.00
2022-09-24T03:31:04.821Z,100.00
2022-09-24T03:33:38.782Z,100.00
2022-09-24T03:36:12.587Z,100.00
2022-09-24T03:38:40.604Z,100.00
2022-09-24T03:41:09.118Z,100.00
2022-09-24T03:43:37.033Z,100.00
2022-09-24T03:46:06.785Z,100.00
2022-09-24T03:48:38.507Z,100.00
2022-09-24T03:51:07.271Z,100.00
2022-09-24T03:53:34.268Z,99.70
2022-09-24T03:56:02.470Z,100.00
2022-09-24T03:58:31.707Z,100.00
2022-09-24T04:00:58.762Z,99.92
2022-09-24T04:03:25.456Z,100.00
2022-09-24T04:05:52.059Z,99.71
2022-09-24T04:08:20.396Z,99.73
2022-09-24T04:10:48.770Z,99.55
2022-09-24T04:13:16.423Z,100.00
2022-09-24T04:15:45.740Z,100.00
2022-09-24T04:18:12.638Z,100.00
2022-09-24T04:20:39.779Z,100.00
2022-09-24T04:23:06.541Z,100.00
2022-09-24T04:25:33.888Z,100.00
2022-09-24T04:28:03.674Z,100.00
2022-09-24T04:30:31.444Z,100.00
2022-09-24T04:33:00.924Z,100.00
2022-09-24T04:35:29.940Z,100.00
2022-09-24T04:37:57.548Z,100.00
2022-09-24T04:40:24.217Z,100.00
2022-09-24T04:42:51.117Z,100.00
2022-09-24T04:45:21.062Z,100.00
2022-09-24T04:47:57.081Z,100.00
2022-09-24T04:50:25.679Z,100.00
2022-09-24T04:52:53.616Z,100.00
2022-09-24T04:55:23.191Z,99.92
2022-09-24T04:57:51.029Z,100.00
2022-09-24T05:00:20.715Z,100.00
2022-09-24T05:02:47.794Z,100.00
2022-09-24T05:05:14.879Z,100.00
2022-09-24T05:07:42.650Z,100.00
2022-09-24T05:10:09.489Z,100.00
2022-09-24T05:12:36.607Z,100.00
2022-09-24T05:15:04.122Z,100.00
2022-09-24T05:17:30.805Z,100.00
2022-09-24T05:19:59.470Z,100.00
2022-09-24T05:22:30.096Z,100.00
2022-09-24T05:24:56.828Z,100.00
2022-09-24T05:27:24.295Z,100.00
2022-09-24T05:29:51.020Z,100.00
2022-09-24T05:32:19.854Z,100.00
2022-09-24T05:34:47.593Z,100.00
2022-09-24T05:37:15.292Z,100.00
2022-09-24T05:39:42.322Z,100.00
2022-09-24T05:42:15.630Z,100.00
2022-09-24T05:44:48.631Z,100.00
2022-09-24T05:47:18.777Z,100.00
2022-09-24T05:49:45.326Z,100.00
2022-09-24T05:52:12.036Z,100.00
2022-09-24T05:54:38.645Z,100.00
2022-09-24T05:57:05.431Z,100.00
2022-09-24T05:59:32.282Z,100.00
2022-09-24T06:01:58.942Z,100.00
2022-09-24T06:04:25.648Z,100.00
2022-09-24T06:06:52.394Z,100.00
2022-09-24T06:09:19.009Z,100.00
2022-09-24T06:11:46.555Z,100.00
2022-09-24T06:14:13.276Z,100.00
2022-09-24T06:16:39.902Z,100.00
2022-09-24T06:19:06.832Z,100.00
2022-09-24T06:21:33.506Z,100.00
2022-09-24T06:24:00.170Z,100.00
2022-09-24T06:26:28.271Z,100.00
2022-09-24T06:28:55.065Z,100.00
2022-09-24T06:31:22.304Z,100.00
2022-09-24T06:33:49.148Z,100.00
2022-09-24T06:36:15.728Z,100.00
2022-09-24T06:38:42.375Z,100.00
2022-09-24T06:41:09.596Z,100.00
2022-09-24T06:43:36.298Z,100.00
2022-09-24T06:46:04.853Z,100.00
2022-09-24T06:48:32.211Z,100.00
2022-09-24T06:50:59.643Z,100.00
2022-09-24T06:53:26.639Z,100.00
2022-09-24T06:55:57.158Z,100.00
2022-09-24T06:58:24.568Z,100.00
2022-09-24T07:00:59.266Z,100.00
2022-09-24T07:03:28.337Z,100.00
2022-09-24T07:05:55.754Z,100.00
2022-09-24T07:08:22.700Z,100.00
2022-09-24T07:10:49.825Z,100.00
2022-09-24T07:13:16.988Z,100.00
2022-09-24T07:15:44.585Z,100.00
2022-09-24T07:18:12.652Z,100.00
2022-09-24T07:20:40.021Z,100.00
2022-09-24T07:23:08.678Z,100.00
2022-09-24T07:25:36.640Z,100.00
2022-09-24T07:28:06.036Z,100.00
2022-09-24T07:30:34.069Z,100.00
2022-09-24T07:33:00.790Z,100.00
2022-09-24T07:35:28.786Z,100.00
2022-09-24T07:38:04.706Z,100.00
2022-09-24T07:40:32.413Z,100.00
2022-09-24T07:43:00.071Z,100.00
2022-09-24T07:45:29.099Z,100.00
2022-09-24T07:48:04.924Z,100.00
2022-09-24T07:50:39.395Z,100.00
2022-09-24T07:53:06.644Z,100.00
2022-09-24T07:55:39.428Z,100.00
2022-09-24T07:58:08.991Z,100.00
2022-09-24T08:00:35.655Z,100.00
2022-09-24T08:03:03.494Z,100.00
2022-09-24T08:05:30.120Z,100.00
2022-09-24T08:07:57.865Z,100.00
2022-09-24T08:10:26.376Z,100.00
2022-09-24T08:12:53.893Z,100.00
2022-09-24T08:15:22.727Z,100.00
2022-09-24T08:17:49.944Z,100.00
2022-09-24T08:20:17.208Z,100.00
2022-09-24T08:22:43.800Z,100.00
2022-09-24T08:25:10.344Z,100.00
2022-09-24T08:27:37.539Z,100.00
2022-09-24T08:30:05.634Z,100.00
2022-09-24T08:32:32.691Z,100.00
2022-09-24T08:34:59.434Z,100.00
2022-09-24T08:37:27.816Z,100.00
2022-09-24T08:39:54.556Z,100.00
2022-09-24T08:42:43.870Z,100.00
2022-09-24T08:45:29.920Z,100.00
2022-09-24T08:48:06.626Z,100.00
2022-09-24T08:50:39.509Z,100.00
2022-09-24T08:53:12.072Z,100.00
2022-09-24T08:55:43.283Z,100.00
2022-09-24T08:58:25.367Z,100.00
2022-09-24T09:01:25.760Z,100.00
2022-09-24T09:04:25.612Z,100.00
2022-09-24T09:07:40.017Z,100.00
2022-09-24T09:10:16.789Z,100.00
2022-09-24T09:12:53.976Z,100.00
2022-09-24T09:15:35.549Z,100.00
2022-09-24T09:18:16.869Z,100.00
2022-09-24T09:20:45.604Z,100.00
2022-09-24T09:23:17.270Z,100.00
2022-09-24T09:25:56.926Z,100.00
2022-09-24T09:28:26.501Z,100.00
2022-09-24T09:31:06.482Z,100.00
2022-09-24T09:33:33.074Z,100.00
2022-09-24T09:36:09.070Z,100.00
2022-09-24T09:38:42.341Z,100.00
2022-09-24T09:41:40.394Z,100.00
2022-09-24T09:44:31.268Z,100.00
2022-09-24T09:47:11.552Z,100.00
2022-09-24T09:49:40.291Z,100.00
2022-09-24T09:52:21.046Z,100.00
2022-09-24T09:54:48.689Z,100.00
2022-09-24T09:57:23.997Z,100.00
2022-09-24T09:59:54.226Z,100.00
2022-09-24T10:02:33.845Z,100.00
2022-09-24T10:05:05.550Z,100.00
2022-09-24T10:07:32.714Z,100.00
2022-09-24T10:10:24.581Z,100.00
2022-09-24T10:13:12.624Z,100.00
2022-09-24T10:15:51.087Z,100.00
2022-09-24T10:18:30.792Z,100.00
2022-09-24T10:20:58.947Z,100.00
2022-09-24T10:23:47.381Z,100.00
2022-09-24T10:26:15.427Z,100.00
2022-09-24T10:29:10.797Z,100.00
2022-09-24T10:31:42.142Z,100.00
2022-09-24T10:34:23.644Z,100.00
2022-09-24T10:36:53.933Z,100.00
2022-09-24T10:39:22.703Z,100.00
2022-09-24T10:41:54.425Z,100.00
2022-09-24T10:44:22.150Z,100.00
2022-09-24T10:47:17.017Z,100.00
2022-09-24T10:50:25.261Z,100.00
2022-09-24T10:53:06.712Z,100.00
2022-09-24T10:55:37.269Z,100.00
2022-09-24T10:58:28.377Z,100.00
2022-09-24T11:01:19.264Z,100.00
2022-09-24T11:04:01.207Z,100.00
2022-09-24T11:07:07.928Z,100.00
2022-09-24T11:09:42.478Z,100.00
2022-09-24T11:12:24.300Z,100.00
2022-09-24T11:15:14.262Z,100.00
2022-09-24T11:18:11.416Z,99.07
2022-09-24T11:20:43.996Z,100.00
2022-09-24T11:23:19.666Z,100.00
2022-09-24T11:26:07.904Z,100.00
2022-09-24T11:28:37.411Z,100.00
2022-09-24T11:31:22.755Z,100.00
2022-09-24T11:34:04.953Z,100.00
2022-09-24T11:36:40.764Z,100.00
2022-09-24T11:39:31.886Z,100.00
2022-09-24T11:42:04.543Z,100.00
2022-09-24T11:44:56.016Z,100.00
2022-09-24T11:47:37.995Z,100.00
2022-09-24T11:50:29.313Z,100.00
2022-09-24T11:53:17.137Z,100.00
2022-09-24T11:55:51.757Z,98.63
2022-09-24T11:58:34.370Z,99.84
2022-09-24T12:01:09.951Z,99.62
2022-09-24T12:04:18.299Z,99.82
2022-09-24T12:06:52.318Z,100.00
2022-09-24T12:09:35.954Z,100.00
2022-09-24T12:12:43.314Z,100.00
2022-09-24T12:15:18.533Z,100.00
2022-09-24T12:18:11.363Z,100.00
2022-09-24T12:20:50.214Z,99.95
2022-09-24T12:23:20.798Z,100.00
2022-09-24T12:25:53.332Z,98.15
2022-09-24T12:28:40.481Z,98.72
2022-09-24T12:31:44.381Z,99.08
2022-09-24T12:34:22.965Z,97.70
2022-09-24T12:37:02.572Z,98.69
2022-09-24T12:39:37.250Z,99.16
2022-09-24T12:42:08.111Z,100.00
2022-09-24T12:44:54.445Z,98.50
2022-09-24T12:47:27.923Z,96.03
2022-09-24T12:49:58.461Z,92.98
2022-09-24T12:52:32.359Z,92.24
2022-09-24T12:55:02.330Z,89.64
2022-09-24T12:57:39.701Z,91.12
2022-09-24T13:00:32.053Z,90.18
2022-09-24T13:02:59.970Z,92.15
2022-09-24T13:05:28.711Z,90.05
2022-09-24T13:07:55.277Z,91.72
2022-09-24T13:10:25.570Z,91.72
2022-09-24T13:12:52.915Z,91.01
2022-09-24T13:15:32.570Z,92.05
2022-09-24T13:18:11.376Z,92.06
2022-09-24T13:20:40.497Z,92.05
2022-09-24T13:23:14.419Z,92.30
2022-09-24T13:25:41.680Z,91.73
2022-09-24T13:28:29.252Z,90.19
2022-09-24T13:31:22.935Z,91.79
2022-09-24T13:33:53.186Z,89.81
2022-09-24T13:36:42.673Z,92.10
2022-09-24T13:39:24.533Z,91.15
2022-09-24T13:42:21.614Z,92.91
2022-09-24T13:44:55.511Z,91.35
2022-09-24T13:47:22.104Z,91.98
2022-09-24T13:49:51.804Z,92.83
2022-09-24T13:52:33.837Z,93.68
2022-09-24T13:55:08.819Z,95.81
2022-09-24T13:57:44.560Z,91.74
2022-09-24T14:00:11.136Z,93.13
2022-09-24T14:02:38.459Z,92.32
2022-09-24T14:05:14.614Z,96.00
2022-09-24T14:07:41.375Z,95.21
2022-09-24T14:10:14.558Z,95.25
2022-09-24T14:12:41.172Z,93.99
2022-09-24T14:15:17.808Z,94.36
2022-09-24T14:17:58.278Z,92.94
2022-09-24T14:20:33.950Z,93.63
2022-09-24T14:23:01.712Z,94.35
2022-09-24T14:25:36.524Z,96.36
2022-09-24T14:28:04.904Z,96.24
2022-09-24T14:30:34.632Z,94.91
2022-09-24T14:33:11.908Z,95.36
2022-09-24T14:35:39.824Z,94.82
2022-09-24T14:42:26.474Z,95.25
2022-09-24T14:49:18.625Z,97.74
2022-09-24T14:51:59.584Z,98.37
2022-09-24T14:54:42.985Z,99.64
2022-09-24T14:57:18.604Z,98.68
2022-09-24T14:59:46.679Z,98.08
2022-09-24T15:02:29.682Z,97.83
2022-09-24T15:05:06.418Z,98.94
2022-09-24T15:07:34.828Z,99.22
2022-09-24T15:10:04.615Z,100.00
2022-09-24T15:12:40.635Z,99.84
2022-09-24T15:15:24.838Z,99.87
2022-09-24T15:17:51.439Z,100.00
2022-09-24T15:20:18.302Z,99.33
2022-09-24T15:22:46.924Z,98.37
2022-09-24T15:25:14.574Z,97.95
2022-09-24T15:27:42.910Z,96.59
2022-09-24T15:30:18.529Z,96.02
2022-09-24T15:32:45.243Z,96.88
2022-09-24T15:35:15.033Z,98.22
2022-09-24T15:37:41.901Z,96.22
2022-09-24T15:40:25.967Z,95.37
2022-09-24T15:42:52.891Z,96.69
2022-09-24T15:45:22.042Z,97.39
2022-09-24T15:47:49.983Z,97.78
2022-09-24T15:50:17.255Z,97.72
2022-09-24T15:52:48.711Z,98.31
2022-09-24T15:55:17.993Z,97.74
2022-09-24T15:57:46.690Z,97.55
2022-09-24T16:00:22.396Z,96.73
2022-09-24T16:02:52.240Z,96.77
2022-09-24T16:05:19.539Z,97.05
2022-09-24T16:07:46.189Z,97.31
2022-09-24T16:10:14.353Z,96.79
2022-09-24T16:12:42.001Z,97.85
2022-09-24T16:15:12.789Z,98.55
2022-09-24T16:17:39.379Z,98.32
2022-09-24T16:20:07.242Z,98.76
2022-09-24T16:22:33.806Z,98.35
2022-09-24T16:25:00.346Z,98.42
2022-09-24T16:27:26.930Z,97.54
2022-09-24T16:29:53.493Z,95.82
2022-09-24T16:32:20.115Z,94.44
2022-09-24T16:34:46.695Z,94.28
2022-09-24T16:37:14.555Z,94.01
2022-09-24T16:39:41.118Z,93.82
2022-09-24T16:42:08.185Z,93.98
2022-09-24T16:44:34.873Z,93.58
2022-09-24T16:47:01.673Z,94.64
2022-09-24T16:49:28.346Z,94.60
2022-09-24T16:51:55.858Z,95.21
2022-09-24T16:54:23.074Z,95.41
2022-09-24T16:56:52.058Z,95.26
2022-09-24T16:59:19.342Z,96.45
2022-09-24T17:01:46.029Z,95.99
2022-09-24T17:04:12.705Z,95.91
2022-09-24T17:06:39.941Z,95.83
2022-09-24T17:09:25.909Z,96.42
2022-09-24T17:11:52.507Z,95.97
2022-09-24T17:14:19.198Z,95.76
2022-09-24T17:16:45.901Z,94.93
2022-09-24T17:19:13.102Z,94.72
2022-09-24T17:21:42.315Z,94.93
2022-09-24T17:24:09.882Z,94.78
2022-09-24T17:26:37.537Z,95.01
2022-09-24T17:29:04.393Z,95.03
2022-09-24T17:31:31.150Z,94.61
2022-09-24T17:34:07.290Z,94.29
2022-09-24T17:36:35.026Z,94.54
2022-09-24T17:39:02.029Z,94.94
2022-09-24T17:41:30.199Z,95.26
2022-09-24T17:43:58.611Z,95.31
2022-09-24T17:46:27.669Z,95.12
2022-09-24T17:48:55.877Z,95.23
2022-09-24T17:51:32.443Z,95.07
2022-09-24T17:54:01.189Z,95.21
2022-09-24T17:56:29.568Z,95.63
2022-09-24T17:58:56.411Z,95.85
2022-09-24T18:01:25.812Z,95.79
2022-09-24T18:03:54.280Z,95.92
2022-09-24T18:06:21.695Z,96.09
2022-09-24T18:08:48.254Z,96.25
2022-09-24T18:11:17.599Z,96.97
2022-09-24T18:13:44.875Z,97.69
2022-09-24T18:16:16.749Z,97.12
2022-09-24T18:18:44.194Z,97.57
2022-09-24T18:21:13.024Z,97.69
2022-09-24T18:23:40.783Z,97.81
2022-09-24T18:26:10.518Z,97.99
2022-09-24T18:28:58.680Z,98.29
2022-09-24T18:31:28.915Z,98.54
2022-09-24T18:33:58.324Z,99.92
2022-09-24T18:36:28.346Z,100.00
2022-09-24T18:38:55.942Z,100.00
2022-09-24T18:41:25.923Z,100.00
2022-09-24T18:43:53.987Z,100.00
2022-09-24T18:46:22.677Z,100.00
2022-09-24T18:48:52.178Z,99.43
2022-09-24T18:51:31.878Z,98.52
2022-09-24T18:54:01.341Z,99.10
2022-09-24T18:56:27.857Z,99.92
2022-09-24T18:58:59.094Z,100.00
2022-09-24T19:01:26.898Z,100.00
2022-09-24T19:03:55.097Z,99.83
2022-09-24T19:06:22.220Z,99.12
2022-09-24T19:08:49.104Z,99.17
2022-09-24T19:11:17.336Z,99.19
2022-09-24T19:13:49.617Z,99.18
2022-09-24T19:16:17.739Z,99.62
2022-09-24T19:18:44.656Z,99.70
2022-09-24T19:21:14.115Z,99.60
2022-09-24T19:23:47.639Z,99.64
2022-09-24T19:26:26.406Z,99.09
2022-09-24T19:28:53.878Z,100.00
2022-09-24T19:31:31.982Z,100.00
2022-09-24T19:34:02.867Z,100.00
2022-09-24T19:36:29.797Z,100.00
2022-09-24T19:38:56.374Z,100.00
2022-09-24T19:41:26.294Z,100.00
2022-09-24T19:43:54.684Z,100.00
2022-09-24T19:46:24.322Z,100.00
2022-09-24T19:48:51.627Z,100.00
2022-09-24T19:51:21.143Z,100.00
2022-09-24T19:53:48.558Z,100.00
2022-09-24T19:56:16.361Z,100.00
2022-09-24T19:58:47.039Z,100.00
2022-09-24T20:01:17.400Z,100.00
2022-09-24T20:03:44.659Z,100.00
2022-09-24T20:06:13.752Z,100.00
2022-09-24T20:08:40.791Z,100.00
2022-09-24T20:11:12.146Z,100.00
2022-09-24T20:13:40.495Z,100.00
2022-09-24T20:16:07.585Z,100.00
2022-09-24T20:18:34.649Z,100.00
2022-09-24T20:21:05.796Z,100.00
2022-09-24T20:23:32.461Z,100.00
2022-09-24T20:26:17.623Z,100.00
2022-09-24T20:28:44.322Z,100.00
2022-09-24T20:31:12.926Z,100.00
2022-09-24T20:33:42.351Z,100.00
2022-09-24T20:36:16.049Z,100.00
2022-09-24T20:38:46.398Z,100.00
2022-09-24T20:41:16.503Z,100.00
2022-09-24T20:43:44.287Z,100.00
2022-09-24T20:46:24.042Z,100.00
2022-09-24T20:48:58.205Z,100.00
2022-09-24T20:51:26.262Z,100.00
2022-09-24T20:53:53.774Z,100.00
2022-09-24T20:56:21.406Z,100.00
2022-09-24T20:58:52.933Z,100.00
2022-09-24T21:01:20.834Z,100.00
2022-09-24T21:03:50.327Z,100.00
2022-09-24T21:06:17.899Z,100.00
2022-09-24T21:08:45.918Z,100.00
2022-09-24T21:11:19.002Z,100.00
2022-09-24T21:13:51.518Z,100.00
2022-09-24T21:16:26.756Z,100.00
2022-09-24T21:18:56.616Z,100.00
2022-09-24T21:21:26.227Z,100.00
2022-09-24T21:23:53.382Z,100.00
2022-09-24T21:26:30.256Z,100.00
2022-09-24T21:29:09.906Z,100.00
2022-09-24T21:31:39.042Z,100.00
2022-09-24T21:34:07.196Z,100.00
2022-09-24T21:36:43.757Z,100.00
2022-09-24T21:39:19.987Z,100.00
2022-09-24T21:41:51.367Z,100.00
2022-09-24T21:44:19.167Z,100.00
2022-09-24T21:46:46.744Z,100.00
2022-09-24T21:49:13.506Z,100.00
2022-09-24T21:51:41.092Z,100.00
2022-09-24T21:54:12.321Z,100.00
2022-09-24T21:56:38.908Z,100.00
2022-09-24T21:59:25.457Z,100.00
2022-09-24T22:01:52.281Z,100.00
2022-09-24T22:04:19.382Z,100.00
2022-09-24T22:06:47.002Z,100.00
2022-09-24T22:09:13.744Z,100.00
2022-09-24T22:11:40.337Z,100.00
2022-09-24T22:14:07.032Z,100.00
2022-09-24T22:16:36.082Z,100.00
2022-09-24T22:19:05.084Z,100.00
2022-09-24T22:21:32.147Z,100.00
2022-09-24T22:23:59.218Z,100.00
2022-09-24T22:26:26.597Z,100.00
2022-09-24T22:28:53.964Z,100.00
2022-09-24T22:31:21.224Z,100.00
2022-09-24T22:34:06.719Z,100.00
2022-09-24T22:36:35.270Z,100.00
2022-09-24T22:39:03.883Z,100.00
2022-09-24T22:41:31.007Z,100.00
2022-09-24T22:43:58.362Z,100.00
2022-09-24T22:46:26.923Z,100.00
2022-09-24T22:48:55.399Z,100.00
2022-09-24T22:51:23.134Z,100.00
2022-09-24T22:53:50.089Z,100.00
2022-09-24T22:56:19.346Z,100.00
2022-09-24T22:58:51.395Z,100.00
2022-09-24T23:01:22.457Z,100.00
2022-09-24T23:03:54.062Z,100.00
2022-09-24T23:06:21.926Z,100.00
2022-09-24T23:08:49.469Z,100.00
2022-09-24T23:11:36.291Z,100.00
2022-09-24T23:14:05.883Z,100.00
2022-09-24T23:16:34.236Z,100.00
2022-09-24T23:19:05.712Z,100.00
2022-09-24T23:21:33.212Z,100.00
2022-09-24T23:24:14.732Z,100.00
2022-09-24T23:26:41.323Z,100.00
2022-09-24T23:29:08.758Z,100.00
2022-09-24T23:31:36.994Z,100.00
2022-09-24T23:34:06.706Z,100.00
2022-09-24T23:36:34.642Z,100.00
2022-09-24T23:39:02.231Z,100.00
2022-09-24T23:41:32.107Z,100.00
2022-09-24T23:43:59.795Z,100.00
2022-09-24T23:46:27.444Z,100.00
2022-09-24T23:48:54.770Z,100.00
2022-09-24T23:51:21.487Z,100.00
2022-09-24T23:53:48.374Z,100.00
2022-09-24T23:56:14.958Z,100.00
2022-09-24T23:58:42.082Z,100.00
